createdAt,value
2022-10-07T02:27:17.992Z,3.30
2022-10-07T02:29:55.623Z,3.27
2022-10-07T02:32:50.797Z,3.20
2022-10-07T02:35:25.513Z,3.17
2022-10-07T02:38:28.521Z,3.40
2022-10-07T02:41:08.506Z,3.27
2022-10-07T02:43:45.530Z,3.33
2022-10-07T02:46:20.286Z,3.40
2022-10-07T02:48:58.946Z,3.17
2022-10-07T02:51:30.232Z,4.00
2022-10-07T02:53:59.021Z,3.27
2022-10-07T02:56:28.433Z,3.20
2022-10-07T02:59:37.692Z,3.70
2022-10-07T03:02:13.300Z,2.90
2022-10-07T03:04:42.404Z,3.00
2022-10-07T03:07:12.250Z,3.67
2022-10-07T03:13:42.508Z,3.30
2022-10-07T03:16:11.430Z,2.90
2022-10-07T03:18:45.617Z,3.30
2022-10-07T03:21:54.873Z,3.20
2022-10-07T03:24:27.407Z,3.93
2022-10-07T03:26:57.976Z,3.00
2022-10-07T03:29:26.430Z,3.40
2022-10-07T03:31:55.541Z,4.27
2022-10-07T03:34:27.383Z,3.70
2022-10-07T03:36:56.332Z,2.80
2022-10-07T03:39:25.357Z,3.27
2022-10-07T03:41:53.965Z,2.90
2022-10-07T03:44:53.004Z,3.27
2022-10-07T03:51:53.772Z,3.93
2022-10-07T03:54:40.787Z,3.37
2022-10-07T03:57:58.421Z,3.90
2022-10-07T04:00:39.318Z,3.27
2022-10-07T04:03:36.283Z,3.43
2022-10-07T04:56:25.021Z,3.07
2022-10-07T05:00:16.056Z,3.00
2022-10-07T05:03:25.245Z,3.47
2022-10-07T05:05:55.824Z,3.77
2022-10-07T05:08:46.249Z,3.30
2022-10-07T05:11:15.551Z,3.30
2022-10-07T05:13:52.517Z,3.63
2022-10-07T05:16:24.758Z,3.30
2022-10-07T05:19:41.276Z,3.33
2022-10-07T05:23:39.026Z,3.43
2022-10-07T05:27:31.509Z,3.97
2022-10-07T05:30:30.207Z,3.60
2022-10-07T05:51:55.491Z,3.80
2022-10-07T05:54:25.628Z,4.10
2022-10-07T05:56:57.589Z,3.50
2022-10-07T05:59:25.826Z,3.70
2022-10-07T06:02:00.987Z,3.57
2022-10-07T06:04:30.072Z,3.83
2022-10-07T06:06:58.023Z,3.77
2022-10-07T06:09:45.439Z,3.80
2022-10-07T06:12:39.162Z,3.90
2022-10-07T06:15:12.241Z,3.67
2022-10-07T06:17:44.743Z,3.80
2022-10-07T06:20:15.469Z,3.93
2022-10-07T06:22:44.964Z,3.70
2022-10-07T06:25:16.933Z,3.90
2022-10-07T06:27:52.702Z,3.60
2022-10-07T06:30:22.385Z,3.83
2022-10-07T06:32:50.526Z,4.30
2022-10-07T06:35:18.500Z,4.43
2022-10-07T06:37:47.431Z,4.50
2022-10-07T06:40:17.470Z,3.97
2022-10-07T06:42:45.661Z,3.93
2022-10-07T06:45:19.475Z,4.63
2022-10-07T06:47:49.814Z,4.13
2022-10-07T06:50:18.125Z,4.13
2022-10-07T06:52:46.341Z,4.13
2022-10-07T06:55:14.939Z,4.07
2022-10-07T06:57:46.497Z,3.70
2022-10-07T07:00:18.206Z,3.93
2022-10-07T07:02:47.177Z,4.00
2022-10-07T07:05:16.885Z,4.07
2022-10-07T07:07:47.682Z,3.33
2022-10-07T07:10:16.125Z,4.03
2022-10-07T07:12:50.173Z,3.90
2022-10-07T07:15:18.880Z,4.07
2022-10-07T07:17:47.306Z,3.40
2022-10-07T07:20:16.834Z,3.50
2022-10-07T07:22:44.809Z,4.60
2022-10-07T07:25:13.459Z,3.60
2022-10-07T07:27:41.616Z,3.60
2022-10-07T07:30:14.636Z,4.10
2022-10-07T07:32:45.943Z,3.53
2022-10-07T07:35:16.596Z,3.87
2022-10-07T07:37:45.089Z,4.47
2022-10-07T07:40:13.467Z,3.80
2022-10-07T07:42:42.208Z,4.60
2022-10-07T07:45:10.534Z,6.80
2022-10-07T07:47:42.156Z,6.60
2022-10-07T07:50:10.320Z,6.20
2022-10-07T07:52:39.349Z,4.90
2022-10-07T07:55:08.995Z,4.47
2022-10-07T07:57:37.945Z,4.40
2022-10-07T08:00:11.688Z,7.07
2022-10-07T08:02:47.557Z,10.20
2022-10-07T08:05:28.231Z,9.67
2022-10-07T08:07:59.231Z,10.67
2022-10-07T08:10:29.052Z,4.80
2022-10-07T08:12:57.095Z,4.03
2022-10-07T08:15:26.388Z,3.70
2022-10-07T08:17:55.970Z,3.17
2022-10-07T08:20:24.003Z,3.10
2022-10-07T08:22:56.902Z,3.43
2022-10-07T08:25:28.263Z,3.03
2022-10-07T08:27:56.988Z,3.30
2022-10-07T08:30:25.163Z,3.57
2022-10-07T08:33:00.370Z,3.80
2022-10-07T08:35:32.762Z,3.43
2022-10-07T08:38:01.253Z,3.63
2022-10-07T08:40:29.505Z,3.27
2022-10-07T08:42:57.619Z,3.30
2022-10-07T08:45:32.004Z,3.37
2022-10-07T08:48:07.970Z,3.43
2022-10-07T08:50:43.572Z,3.63
2022-10-07T08:53:20.601Z,3.10
2022-10-07T08:55:54.944Z,3.53
2022-10-07T08:58:45.082Z,3.40
2022-10-07T09:01:25.456Z,3.50
2022-10-07T09:04:02.831Z,3.83
2022-10-07T09:06:34.526Z,3.60
2022-10-07T09:09:05.890Z,3.80
2022-10-07T09:11:35.820Z,3.50
2022-10-07T09:14:15.114Z,3.83
2022-10-07T09:16:46.085Z,3.27
2022-10-07T09:19:21.860Z,3.37
2022-10-07T09:21:51.280Z,3.27
2022-10-07T09:24:22.560Z,3.77
2022-10-07T09:27:25.144Z,3.80
2022-10-07T09:30:17.749Z,3.73
2022-10-07T09:33:38.068Z,3.50
2022-10-07T09:41:17.572Z,3.47
2022-10-07T09:44:02.176Z,3.40
2022-10-07T09:50:34.215Z,3.13
2022-10-07T09:53:17.550Z,3.70
2022-10-07T09:56:04.797Z,2.97
2022-10-07T09:59:35.058Z,2.90
2022-10-07T14:27:02.266Z,1.97
2022-10-07T14:29:38.875Z,2.00
2022-10-07T14:32:36.430Z,1.90
2022-10-07T14:35:19.984Z,1.93
2022-10-07T14:37:48.433Z,2.07
2022-10-07T14:40:24.626Z,2.50
2022-10-07T14:42:54.960Z,2.10
2022-10-07T14:45:23.814Z,2.50
2022-10-07T14:47:51.833Z,2.73
2022-10-07T14:50:20.418Z,2.07
2022-10-07T14:52:52.089Z,2.10
2022-10-07T14:55:24.074Z,2.20
2022-10-07T14:57:52.890Z,2.10
2022-10-07T15:00:24.366Z,2.27
2022-10-07T15:02:53.255Z,1.80
2022-10-07T15:05:22.654Z,1.83
2022-10-07T15:07:52.587Z,1.80
2022-10-07T15:10:23.068Z,2.30
2022-10-07T15:12:51.225Z,2.10
2022-10-07T15:15:19.866Z,2.03
2022-10-07T15:17:49.500Z,2.10
2022-10-07T15:20:18.529Z,2.40
2022-10-07T15:22:46.800Z,1.90
2022-10-07T15:25:15.796Z,1.80
2022-10-07T15:27:43.897Z,2.10
2022-10-07T15:30:13.512Z,2.17
2022-10-07T15:32:41.707Z,2.20
2022-10-07T15:35:11.611Z,1.83
2022-10-07T15:37:44.288Z,2.00
2022-10-07T15:40:12.819Z,2.07
2022-10-07T15:42:44.222Z,2.10
2022-10-07T15:45:12.598Z,2.77
2022-10-07T15:47:40.773Z,1.77
2022-10-07T15:50:09.875Z,1.90
2022-10-07T15:52:39.309Z,2.20
2022-10-07T15:55:18.288Z,2.13
2022-10-07T15:57:46.364Z,2.23
2022-10-07T16:00:17.094Z,2.03
2022-10-07T16:02:46.469Z,2.00
2022-10-07T16:05:15.050Z,2.30
2022-10-07T16:07:44.477Z,2.20
2022-10-07T16:10:13.331Z,1.93
2022-10-07T16:12:44.669Z,2.20
2022-10-07T16:15:12.938Z,2.17
2022-10-07T16:17:41.049Z,2.70
2022-10-07T16:20:11.629Z,2.90
2022-10-07T16:22:39.923Z,2.93
2022-10-07T16:25:09.768Z,3.13
2022-10-07T16:27:51.629Z,2.87
2022-10-07T16:30:37.126Z,4.43
2022-10-07T16:33:05.484Z,4.60
2022-10-07T16:35:33.470Z,3.80
2022-10-07T16:38:02.881Z,4.63
2022-10-07T16:40:32.227Z,4.67
2022-10-07T16:43:00.555Z,4.13
2022-10-07T16:45:28.711Z,3.20
2022-10-07T16:47:57.397Z,3.10
2022-10-07T16:50:25.324Z,2.90
2022-10-07T16:52:53.250Z,3.10
2022-10-07T16:55:21.548Z,2.37
2022-10-07T16:57:51.329Z,2.87
2022-10-07T17:00:19.426Z,2.63
2022-10-07T17:02:47.439Z,2.47
2022-10-07T17:05:15.506Z,1.93
2022-10-07T17:07:43.773Z,2.30
2022-10-07T17:10:12.060Z,2.40
2022-10-07T17:12:39.968Z,2.47
2022-10-07T17:15:10.168Z,2.80
2022-10-07T17:17:38.218Z,2.90
2022-10-07T17:20:06.881Z,2.60
2022-10-07T17:22:35.281Z,2.40
2022-10-07T17:25:04.006Z,3.20
2022-10-07T17:27:32.039Z,3.20
2022-10-07T17:30:01.012Z,3.60
2022-10-07T17:32:30.389Z,3.10
2022-10-07T17:34:59.235Z,3.40
2022-10-07T17:37:27.377Z,3.03
2022-10-07T17:39:55.300Z,3.00
2022-10-07T17:42:23.373Z,2.87
2022-10-07T17:44:53.459Z,3.40
2022-10-07T17:47:21.597Z,3.50
2022-10-07T17:49:51.195Z,4.57
2022-10-07T17:52:20.512Z,4.17
2022-10-07T17:54:53.266Z,3.27
2022-10-07T17:57:27.354Z,11.17
2022-10-07T17:59:55.503Z,7.07
2022-10-07T18:02:23.854Z,7.50
2022-10-07T18:04:53.336Z,6.70
2022-10-07T18:07:21.799Z,5.00
2022-10-07T18:09:50.160Z,8.40
2022-10-07T18:12:35.790Z,4.13
2022-10-07T18:15:21.764Z,7.00
2022-10-07T18:17:51.493Z,8.43
2022-10-07T18:20:22.829Z,7.80
2022-10-07T18:22:55.756Z,8.53
2022-10-07T18:25:24.360Z,5.77
2022-10-07T18:27:53.140Z,6.97
2022-10-07T18:30:21.134Z,3.60
2022-10-07T18:32:49.190Z,3.93
2022-10-07T18:35:18.785Z,3.20
2022-10-07T18:37:49.593Z,3.30
2022-10-07T18:40:18.114Z,3.13
2022-10-07T18:42:46.049Z,2.53
2022-10-07T18:45:14.109Z,3.10
2022-10-07T18:47:42.208Z,3.30
2022-10-07T18:50:10.744Z,3.13
2022-10-07T18:52:39.445Z,2.83
2022-10-07T18:55:09.754Z,3.23
2022-10-07T18:57:37.724Z,2.93
2022-10-07T19:00:06.951Z,3.07
2022-10-07T19:02:35.098Z,2.97
2022-10-07T19:05:03.181Z,3.00
2022-10-07T19:07:31.371Z,3.40
2022-10-07T19:09:59.622Z,3.70
2022-10-07T19:12:53.984Z,6.33
2022-10-07T19:15:22.462Z,7.10
2022-10-07T19:17:55.420Z,7.63
2022-10-07T19:20:24.190Z,6.13
2022-10-07T19:22:52.193Z,5.33
2022-10-07T19:25:37.685Z,4.83
2022-10-07T19:28:22.595Z,3.77
2022-10-07T19:30:50.878Z,3.40
2022-10-07T19:33:19.150Z,3.50
2022-10-07T19:35:47.514Z,3.77
2022-10-07T19:38:15.592Z,3.10
2022-10-07T19:40:45.326Z,3.70
2022-10-07T19:43:13.754Z,3.30
2022-10-07T19:45:44.321Z,3.70
2022-10-07T19:48:15.378Z,3.60
2022-10-07T19:50:43.807Z,3.20
2022-10-07T19:53:11.846Z,3.40
2022-10-07T19:55:45.990Z,3.40
2022-10-07T19:58:14.067Z,3.60
2022-10-07T20:00:43.507Z,3.53
2022-10-07T20:03:11.641Z,3.90
2022-10-07T20:05:41.125Z,4.00
2022-10-07T20:08:10.393Z,4.17
2022-10-07T20:10:39.458Z,4.47
2022-10-07T20:13:07.554Z,4.07
2022-10-07T20:15:36.190Z,3.70
2022-10-07T20:18:08.973Z,4.30
2022-10-07T20:20:37.061Z,4.00
2022-10-07T20:23:05.035Z,4.20
2022-10-07T20:25:33.103Z,3.83
2022-10-07T20:28:01.091Z,3.97
2022-10-07T20:30:29.207Z,3.70
2022-10-07T20:32:57.266Z,3.97
2022-10-07T20:35:30.545Z,4.27
2022-10-07T20:38:01.229Z,4.23
2022-10-07T20:40:46.841Z,3.80
2022-10-07T20:43:14.886Z,3.90
